createdAt,value
2023-01-29T00:01:55.595Z,96133.13
2023-01-29T00:04:22.753Z,96143.25
2023-01-29T00:06:49.317Z,96139.81
2023-01-29T00:09:15.871Z,96130.31
2023-01-29T00:11:42.358Z,96139.63
2023-01-29T00:14:09.246Z,96135.06
2023-01-29T00:16:35.816Z,96135.22
2023-01-29T00:19:03.736Z,96139.47
2023-01-29T00:21:31.168Z,96142.69
2023-01-29T00:23:58.370Z,96131.59
2023-01-29T00:26:26.034Z,96136.75
2023-01-29T00:28:54.431Z,96136.56
2023-01-29T00:31:27.291Z,96131.88
2023-01-29T00:33:54.040Z,96127.97
2023-01-29T00:36:21.970Z,96127.88
2023-01-29T00:38:53.859Z,96126.38
2023-01-29T00:41:21.707Z,96135.06
2023-01-29T00:43:48.287Z,96135.16
2023-01-29T00:46:14.871Z,96122.75
2023-01-29T00:48:41.565Z,96116.50
2023-01-29T00:51:08.090Z,96131.63
2023-01-29T00:53:34.579Z,96135.84
2023-01-29T00:56:01.121Z,96128.53
2023-01-29T00:58:29.789Z,96136.88
2023-01-29T01:00:56.581Z,96132.59
2023-01-29T01:03:23.186Z,96131.78
2023-01-29T01:05:49.710Z,96134.50
2023-01-29T01:08:16.381Z,96137.13
2023-01-29T01:10:42.899Z,96135.63
2023-01-29T01:13:09.463Z,96138.25
2023-01-29T01:15:40.052Z,96145.75
2023-01-29T01:18:06.666Z,96142.56
2023-01-29T01:20:34.864Z,96140.00
2023-01-29T01:23:01.363Z,96139.47
2023-01-29T01:25:28.176Z,96142.56
2023-01-29T01:27:56.882Z,96144.78
2023-01-29T01:30:24.045Z,96151.91
2023-01-29T01:32:51.688Z,96149.28
2023-01-29T01:35:18.664Z,96160.53
2023-01-29T01:37:45.231Z,96159.31
2023-01-29T01:40:19.047Z,96159.13
2023-01-29T01:42:55.807Z,96156.50
2023-01-29T01:45:34.733Z,96160.03
2023-01-29T01:48:07.755Z,96169.84
2023-01-29T01:50:52.134Z,96173.22
2023-01-29T01:53:24.807Z,96168.00
2023-01-29T01:56:02.049Z,96181.91
2023-01-29T01:58:36.812Z,96177.28
2023-01-29T02:01:07.794Z,96174.50
2023-01-29T02:03:45.637Z,96184.88
2023-01-29T02:06:12.283Z,96179.31
2023-01-29T02:08:52.667Z,96186.44
2023-01-29T02:11:19.873Z,96192.81
2023-01-29T02:13:46.608Z,96198.00
2023-01-29T02:16:13.060Z,96200.31
2023-01-29T02:18:39.669Z,96202.66
2023-01-29T02:21:40.261Z,96194.47
2023-01-29T02:24:31.115Z,96196.41
2023-01-29T02:27:09.352Z,96216.53
2023-01-29T02:29:44.502Z,96218.38
2023-01-29T02:32:29.760Z,96221.22
2023-01-29T02:35:10.186Z,96222.56
2023-01-29T02:38:01.606Z,96241.03
2023-01-29T02:40:41.031Z,96235.91
2023-01-29T02:43:33.037Z,96234.44
2023-01-29T02:46:11.684Z,96235.28
2023-01-29T02:48:59.501Z,96240.50
2023-01-29T02:51:35.708Z,96239.06
2023-01-29T02:54:14.364Z,96230.97
2023-01-29T02:56:53.787Z,96239.84
2023-01-29T02:59:28.257Z,96240.19
2023-01-29T03:02:07.561Z,96241.03
2023-01-29T03:04:41.754Z,96242.53
2023-01-29T03:07:17.471Z,96235.72
2023-01-29T03:09:50.506Z,96237.44
2023-01-29T03:12:28.424Z,96243.16
2023-01-29T03:14:59.852Z,96255.31
2023-01-29T03:17:33.597Z,96256.59
2023-01-29T03:20:04.799Z,96247.25
2023-01-29T03:22:32.933Z,96242.53
2023-01-29T03:25:04.581Z,96239.31
2023-01-29T03:27:38.485Z,96247.44
2023-01-29T03:30:12.089Z,96239.56
2023-01-29T03:32:39.049Z,96246.47
2023-01-29T03:35:10.345Z,96239.94
2023-01-29T03:37:45.932Z,96249.25
2023-01-29T03:40:13.694Z,96242.41
2023-01-29T03:43:03.496Z,96246.09
2023-01-29T03:45:51.745Z,96247.09
2023-01-29T03:48:33.784Z,96240.78
2023-01-29T03:51:22.211Z,96250.25
2023-01-29T03:54:01.091Z,96249.09
2023-01-29T03:56:33.562Z,96243.19
2023-01-29T03:59:12.401Z,96248.38
2023-01-29T04:01:46.305Z,96245.41
2023-01-29T04:04:24.350Z,96247.28
2023-01-29T04:06:56.486Z,96242.84
2023-01-29T04:09:40.202Z,96242.25
2023-01-29T04:12:11.381Z,96239.38
2023-01-29T04:14:39.100Z,96241.63
2023-01-29T04:17:16.460Z,96239.94
2023-01-29T04:19:43.840Z,96236.16
2023-01-29T04:22:26.084Z,96246.91
2023-01-29T04:24:52.996Z,96242.84
2023-01-29T04:27:52.299Z,96237.53
2023-01-29T04:30:54.055Z,96247.16
2023-01-29T04:33:28.044Z,96242.84
2023-01-29T04:36:13.151Z,96237.91
2023-01-29T04:38:42.390Z,96241.50
2023-01-29T04:41:31.757Z,96243.91
2023-01-29T04:44:14.792Z,96237.63
2023-01-29T04:46:52.320Z,96239.44
2023-01-29T04:49:35.173Z,96244.09
2023-01-29T04:52:20.026Z,96235.97
2023-01-29T04:55:16.699Z,96236.25
2023-01-29T04:58:03.085Z,96235.19
2023-01-29T05:00:36.981Z,96235.50
2023-01-29T05:03:04.772Z,96235.06
2023-01-29T05:05:31.357Z,96243.16
2023-01-29T05:07:59.469Z,96239.03
2023-01-29T05:10:26.625Z,96232.47
2023-01-29T05:13:01.241Z,96240.41
2023-01-29T05:15:41.771Z,96246.50
2023-01-29T05:18:08.863Z,96244.50
2023-01-29T05:20:40.034Z,96249.09
2023-01-29T05:23:18.133Z,96244.63
2023-01-29T05:25:45.271Z,96245.53
2023-01-29T05:28:11.813Z,96260.50
2023-01-29T05:30:39.946Z,96260.78
2023-01-29T05:33:24.174Z,96259.84
2023-01-29T05:35:51.020Z,96266.97
2023-01-29T05:38:18.776Z,96266.72
2023-01-29T05:40:45.698Z,96267.41
2023-01-29T05:43:17.799Z,96280.34
2023-01-29T05:45:55.298Z,96284.66
2023-01-29T05:48:22.094Z,96287.25
2023-01-29T05:50:49.447Z,96299.75
2023-01-29T05:53:16.025Z,96302.16
2023-01-29T05:55:47.207Z,96305.22
2023-01-29T05:58:14.372Z,96308.56
2023-01-29T06:00:41.943Z,96317.53
2023-01-29T06:03:08.496Z,96320.22
2023-01-29T06:05:38.642Z,96319.94
2023-01-29T06:08:05.829Z,96320.72
2023-01-29T06:10:32.854Z,96320.94
2023-01-29T06:12:59.365Z,96327.28
2023-01-29T06:15:26.090Z,96322.25
2023-01-29T06:17:56.655Z,96330.69
2023-01-29T06:20:24.151Z,96335.41
2023-01-29T06:22:50.643Z,96341.69
2023-01-29T06:25:17.174Z,96346.94
2023-01-29T06:27:43.719Z,96348.31
2023-01-29T06:30:10.707Z,96345.94
2023-01-29T06:32:37.229Z,96348.38
2023-01-29T06:35:04.067Z,96355.22
2023-01-29T06:37:30.551Z,96363.50
2023-01-29T06:39:57.060Z,96367.22
2023-01-29T06:42:23.628Z,96373.75
2023-01-29T06:44:50.087Z,96370.03
2023-01-29T06:47:16.557Z,96377.47
2023-01-29T06:49:43.122Z,96388.97
2023-01-29T06:52:09.599Z,96384.47
2023-01-29T06:54:36.121Z,96379.03
2023-01-29T06:57:02.718Z,96391.72
2023-01-29T06:59:29.256Z,96384.69
2023-01-29T07:01:55.838Z,96381.25
2023-01-29T07:04:22.450Z,96379.69
2023-01-29T07:06:48.992Z,96387.31
2023-01-29T07:09:15.471Z,96389.72
2023-01-29T07:11:42.176Z,96398.75
2023-01-29T07:14:08.713Z,96406.84
2023-01-29T07:16:35.273Z,96403.94
2023-01-29T07:19:01.904Z,96407.25
2023-01-29T07:21:28.396Z,96399.66
2023-01-29T07:23:54.985Z,96399.59
2023-01-29T07:26:21.624Z,96409.34
2023-01-29T07:28:48.167Z,96402.19
2023-01-29T07:31:14.768Z,96392.63
2023-01-29T07:33:43.760Z,96397.91
2023-01-29T07:36:12.033Z,96398.38
2023-01-29T07:38:38.641Z,96390.25
2023-01-29T07:41:05.302Z,96386.84
2023-01-29T07:43:32.021Z,96387.47
2023-01-29T07:46:03.327Z,96384.53
2023-01-29T07:48:29.890Z,96370.03
2023-01-29T07:50:57.295Z,96367.41
2023-01-29T07:53:24.220Z,96367.97
2023-01-29T07:55:51.299Z,96375.91
2023-01-29T07:58:17.928Z,96386.50
2023-01-29T08:00:44.927Z,96373.97
2023-01-29T08:03:17.496Z,96386.19
2023-01-29T08:05:44.785Z,96379.53
2023-01-29T08:08:11.347Z,96365.59
2023-01-29T08:10:39.569Z,96370.31
2023-01-29T08:13:07.168Z,96370.03
2023-01-29T08:15:36.069Z,96377.03
2023-01-29T08:18:04.741Z,96389.09
2023-01-29T08:20:31.251Z,96385.94
2023-01-29T08:23:03.185Z,96383.59
2023-01-29T08:25:30.269Z,96381.38
2023-01-29T08:27:58.319Z,96386.16
2023-01-29T08:30:27.466Z,96386.63
2023-01-29T08:32:53.966Z,96391.44
2023-01-29T08:35:21.213Z,96379.38
2023-01-29T08:37:55.291Z,96393.25
2023-01-29T08:40:22.244Z,96394.06
2023-01-29T08:42:48.901Z,96395.31
2023-01-29T08:45:15.891Z,96393.63
2023-01-29T08:47:50.032Z,96393.53
2023-01-29T08:50:18.173Z,96395.44
2023-01-29T08:52:45.883Z,96397.72
2023-01-29T08:55:12.422Z,96417.50
2023-01-29T08:57:39.362Z,96415.41
2023-01-29T09:00:07.724Z,96414.34
2023-01-29T09:02:34.265Z,96408.94
2023-01-29T09:05:00.745Z,96406.22
2023-01-29T09:07:29.327Z,96411.53
2023-01-29T09:09:55.831Z,96412.75
2023-01-29T09:12:22.372Z,96415.88
2023-01-29T09:14:48.897Z,96405.34
2023-01-29T09:17:15.477Z,96405.97
2023-01-29T09:19:42.093Z,96412.69
2023-01-29T09:22:10.375Z,96414.16
2023-01-29T09:24:38.103Z,96420.78
2023-01-29T09:27:04.606Z,96412.88
2023-01-29T09:29:31.104Z,96420.16
2023-01-29T09:31:57.743Z,96419.72
2023-01-29T09:34:24.363Z,96426.38
2023-01-29T09:36:52.240Z,96424.72
2023-01-29T09:39:18.727Z,96422.84
2023-01-29T09:42:14.639Z,96433.47
2023-01-29T09:44:55.212Z,96433.53
2023-01-29T09:47:25.595Z,96441.66
2023-01-29T09:50:30.127Z,96442.28
2023-01-29T09:53:16.740Z,96445.16
2023-01-29T09:55:52.675Z,96452.22
2023-01-29T09:58:36.119Z,96457.63
2023-01-29T10:01:12.024Z,96456.97
2023-01-29T10:04:03.345Z,96466.13
2023-01-29T10:06:57.416Z,96471.56
2023-01-29T10:09:44.993Z,96463.53
2023-01-29T10:12:31.299Z,96478.06
2023-01-29T10:15:04.593Z,96474.25
2023-01-29T10:18:16.458Z,96479.78
2023-01-29T10:21:17.198Z,96484.00
2023-01-29T10:23:54.546Z,96488.72
2023-01-29T10:26:27.039Z,96476.81
2023-01-29T10:28:58.634Z,96480.91
2023-01-29T10:31:31.771Z,96487.16
2023-01-29T10:34:14.670Z,96478.94
2023-01-29T10:36:47.425Z,96477.84
2023-01-29T10:39:22.177Z,96473.69
2023-01-29T10:42:19.126Z,96477.50
2023-01-29T10:45:17.154Z,96470.53
2023-01-29T10:48:11.789Z,96481.31
2023-01-29T10:50:54.902Z,96476.72
2023-01-29T10:53:43.929Z,96479.41
2023-01-29T10:56:30.205Z,96473.00
2023-01-29T10:59:04.158Z,96469.41
2023-01-29T11:01:31.430Z,96469.63
2023-01-29T11:04:04.396Z,96464.75
2023-01-29T11:06:35.595Z,96471.63
2023-01-29T11:09:23.721Z,96471.44
2023-01-29T11:11:53.761Z,96471.81
2023-01-29T11:14:34.311Z,96463.59
2023-01-29T11:17:00.892Z,96468.75
2023-01-29T11:19:40.201Z,96467.31
2023-01-29T11:22:16.805Z,96465.19
2023-01-29T11:24:44.230Z,96468.34
2023-01-29T11:27:24.262Z,96473.53
2023-01-29T11:29:53.790Z,96471.91
2023-01-29T11:32:21.255Z,96469.19
2023-01-29T11:35:03.882Z,96457.97
2023-01-29T11:37:36.737Z,96458.63
2023-01-29T11:40:36.770Z,96467.16
2023-01-29T11:43:29.172Z,96464.41
2023-01-29T11:46:05.961Z,96451.88
2023-01-29T11:48:49.196Z,96451.31
2023-01-29T11:51:27.690Z,96444.56
2023-01-29T11:54:02.733Z,96442.66
2023-01-29T11:56:38.884Z,96449.31
2023-01-29T11:59:05.870Z,96441.72
2023-01-29T12:01:35.316Z,96444.31
2023-01-29T12:04:04.319Z,96435.38
2023-01-29T12:06:40.812Z,96440.47
2023-01-29T12:09:18.140Z,96443.94
2023-01-29T12:11:44.888Z,96437.50
2023-01-29T12:14:33.620Z,96433.34
2023-01-29T12:17:21.771Z,96430.28
2023-01-29T12:20:00.380Z,96434.00
2023-01-29T12:22:59.368Z,96428.56
2023-01-29T12:25:35.702Z,96427.63
2023-01-29T12:28:28.252Z,96420.47
2023-01-29T12:31:08.407Z,96414.00
2023-01-29T12:33:51.926Z,96410.88
2023-01-29T12:37:01.439Z,96414.09
2023-01-29T12:39:27.947Z,96410.44
2023-01-29T12:42:04.602Z,96409.13
2023-01-29T12:44:38.870Z,96404.00
2023-01-29T12:47:12.365Z,96397.16
2023-01-29T12:49:41.743Z,96402.69
2023-01-29T12:52:28.565Z,96399.91
2023-01-29T12:55:06.150Z,96393.78
2023-01-29T12:57:43.938Z,96393.22
2023-01-29T13:00:20.268Z,96391.94
2023-01-29T13:02:57.981Z,96392.34
2023-01-29T13:05:50.964Z,96395.28
2023-01-29T13:08:41.122Z,96390.06
2023-01-29T13:11:23.965Z,96391.50
2023-01-29T13:14:06.776Z,96385.88
2023-01-29T13:16:43.585Z,96380.66
2023-01-29T13:19:23.894Z,96388.28
2023-01-29T13:21:54.500Z,96389.00
2023-01-29T13:24:25.289Z,96386.69
2023-01-29T13:26:52.032Z,96386.81
2023-01-29T13:29:29.065Z,96382.78
2023-01-29T13:32:02.163Z,96394.88
2023-01-29T13:34:37.880Z,96389.09
2023-01-29T13:37:16.282Z,96387.03
2023-01-29T13:39:52.439Z,96392.41
2023-01-29T13:42:39.048Z,96394.25
2023-01-29T13:45:09.036Z,96393.00
2023-01-29T13:47:39.236Z,96389.81
2023-01-29T13:50:21.216Z,96392.47
2023-01-29T13:53:03.174Z,96383.69
2023-01-29T13:55:33.508Z,96389.63
2023-01-29T13:58:17.344Z,96385.81
2023-01-29T14:00:43.796Z,96385.94
2023-01-29T14:03:10.247Z,96390.38
2023-01-29T14:05:54.933Z,96384.06
2023-01-29T14:08:45.291Z,96385.28
2023-01-29T14:11:14.710Z,96384.78
2023-01-29T14:13:47.241Z,96385.59
2023-01-29T14:16:13.749Z,96388.84
2023-01-29T14:19:01.732Z,96392.97
2023-01-29T14:21:32.684Z,96400.16
2023-01-29T14:24:19.931Z,96392.91
2023-01-29T14:26:52.789Z,96390.75
2023-01-29T14:29:34.230Z,96395.63
2023-01-29T14:32:18.573Z,96393.88
2023-01-29T14:34:50.179Z,96395.59
2023-01-29T14:37:17.816Z,96397.34
2023-01-29T14:39:58.123Z,96395.00
2023-01-29T14:42:32.032Z,96399.56
2023-01-29T14:45:30.093Z,96396.16
2023-01-29T14:48:16.808Z,96409.91
2023-01-29T14:50:50.929Z,96402.28
2023-01-29T14:53:45.267Z,96408.41
2023-01-29T14:56:19.062Z,96408.16
2023-01-29T14:58:50.931Z,96420.50
2023-01-29T15:01:33.449Z,96411.97
2023-01-29T15:04:05.628Z,96409.91
2023-01-29T15:06:54.958Z,96411.47
2023-01-29T15:09:36.650Z,96413.19
2023-01-29T15:12:18.608Z,96400.28
2023-01-29T15:15:15.867Z,96406.56
2023-01-29T15:18:01.728Z,96400.47
2023-01-29T15:20:37.124Z,96387.22
2023-01-29T15:23:30.084Z,96393.25
2023-01-29T15:26:00.318Z,96385.34
2023-01-29T15:28:30.076Z,96380.84
2023-01-29T15:30:59.305Z,96379.94
2023-01-29T15:33:29.784Z,96381.56
2023-01-29T15:36:08.538Z,96386.34
2023-01-29T15:38:35.904Z,96384.84
2023-01-29T15:41:16.355Z,96385.47
2023-01-29T15:43:57.682Z,96390.72
2023-01-29T15:46:28.436Z,96381.44
2023-01-29T15:48:57.544Z,96384.78
2023-01-29T15:51:41.706Z,96376.16
2023-01-29T15:54:15.937Z,96384.16
2023-01-29T15:56:47.887Z,96379.91
2023-01-29T15:59:29.222Z,96388.56
2023-01-29T16:01:55.857Z,96387.88
2023-01-29T16:04:29.263Z,96390.34
2023-01-29T16:07:00.207Z,96390.59
2023-01-29T16:09:28.982Z,96399.59
2023-01-29T16:11:59.057Z,96393.19
2023-01-29T16:14:28.398Z,96396.91
2023-01-29T16:16:55.045Z,96403.44
2023-01-29T16:19:28.282Z,96411.69
2023-01-29T16:22:08.398Z,96413.38
2023-01-29T16:24:38.106Z,96408.94
2023-01-29T16:27:14.034Z,96403.88
2023-01-29T16:29:41.083Z,96399.44
2023-01-29T16:32:09.179Z,96396.75
2023-01-29T16:34:39.083Z,96396.94
2023-01-29T16:37:28.216Z,96397.13
2023-01-29T16:39:55.680Z,96400.25
2023-01-29T16:42:28.271Z,96398.69
2023-01-29T16:45:03.924Z,96406.38
2023-01-29T16:47:38.838Z,96412.00
2023-01-29T16:50:17.376Z,96407.88
2023-01-29T16:53:01.554Z,96403.97
2023-01-29T16:55:39.610Z,96410.81
2023-01-29T16:58:18.856Z,96407.38
2023-01-29T17:00:50.420Z,96405.84
2023-01-29T17:03:19.308Z,96409.16
2023-01-29T17:05:47.350Z,96412.19
2023-01-29T17:08:25.033Z,96418.75
2023-01-29T17:10:52.321Z,96407.50
2023-01-29T17:13:25.635Z,96409.16
2023-01-29T17:15:52.375Z,96407.56
2023-01-29T17:18:24.354Z,96404.53
2023-01-29T17:20:51.875Z,96413.09
2023-01-29T17:23:18.854Z,96420.56
2023-01-29T17:25:51.845Z,96411.81
2023-01-29T17:28:18.566Z,96414.94
2023-01-29T17:30:56.671Z,96421.41
2023-01-29T17:33:26.970Z,96421.31
2023-01-29T17:35:53.624Z,96420.56
2023-01-29T17:38:26.001Z,96424.13
2023-01-29T17:41:08.476Z,96426.53
2023-01-29T17:43:35.065Z,96430.19
2023-01-29T17:46:01.620Z,96429.25
2023-01-29T17:48:29.815Z,96430.25
2023-01-29T17:51:00.587Z,96433.06
2023-01-29T17:53:43.238Z,96429.97
2023-01-29T17:56:20.041Z,96428.41
2023-01-29T17:58:46.522Z,96428.94
2023-01-29T18:01:13.063Z,96437.38
2023-01-29T18:03:42.686Z,96432.91
2023-01-29T18:06:11.632Z,96442.06
2023-01-29T18:08:39.646Z,96446.84
2023-01-29T18:11:06.481Z,96433.84
2023-01-29T18:13:33.057Z,96432.19
2023-01-29T18:15:59.731Z,96433.94
2023-01-29T18:18:26.245Z,96437.47
2023-01-29T18:20:52.804Z,96438.84
2023-01-29T18:23:19.296Z,96433.09
2023-01-29T18:25:45.943Z,96438.06
2023-01-29T18:28:17.620Z,96440.38
2023-01-29T18:30:47.079Z,96429.41
2023-01-29T18:33:14.734Z,96437.00
2023-01-29T18:35:41.288Z,96431.63
2023-01-29T18:38:07.788Z,96439.38
2023-01-29T18:40:34.521Z,96432.22
2023-01-29T18:43:01.030Z,96433.97
2023-01-29T18:45:28.573Z,96435.41
2023-01-29T18:47:55.683Z,96431.56
2023-01-29T18:50:22.183Z,96429.78
2023-01-29T18:52:49.398Z,96430.28
2023-01-29T18:55:16.328Z,96425.06
2023-01-29T18:58:26.124Z,96424.81
2023-01-29T19:00:29.518Z,96425.28
2023-01-29T19:02:56.009Z,96425.28
2023-01-29T19:05:22.546Z,96423.03
2023-01-29T19:07:48.992Z,96413.13
2023-01-29T19:10:15.825Z,96419.69
2023-01-29T19:12:42.990Z,96420.94
2023-01-29T19:15:11.793Z,96431.56
2023-01-29T19:17:38.729Z,96431.75
2023-01-29T19:20:05.462Z,96422.34
2023-01-29T19:22:34.252Z,96428.34
2023-01-29T19:25:00.715Z,96432.94
2023-01-29T19:27:27.236Z,96425.44
2023-01-29T19:29:53.717Z,96426.06
2023-01-29T19:32:20.221Z,96428.16
2023-01-29T19:34:46.671Z,96438.91
2023-01-29T19:37:16.124Z,96437.94
2023-01-29T19:39:42.652Z,96439.69
2023-01-29T19:42:09.115Z,96444.63
2023-01-29T19:44:35.657Z,96450.25
2023-01-29T19:47:02.300Z,96444.56
2023-01-29T19:49:29.263Z,96450.78
2023-01-29T19:51:55.758Z,96458.75
2023-01-29T19:54:22.235Z,96454.31
2023-01-29T19:56:48.708Z,96463.09
2023-01-29T19:59:15.167Z,96464.59
2023-01-29T20:01:41.640Z,96463.78
2023-01-29T20:04:08.143Z,96469.97
2023-01-29T20:06:34.780Z,96471.44
2023-01-29T20:09:01.285Z,96468.81
2023-01-29T20:11:27.784Z,96472.44
2023-01-29T20:13:56.583Z,96478.66
2023-01-29T20:16:24.878Z,96478.66
2023-01-29T20:18:51.727Z,96477.72
2023-01-29T20:21:20.309Z,96478.16
2023-01-29T20:23:50.042Z,96480.09
2023-01-29T20:26:17.757Z,96475.03
2023-01-29T20:28:48.107Z,96476.56
2023-01-29T20:31:15.762Z,96481.19
2023-01-29T20:33:42.353Z,96484.44
2023-01-29T20:36:12.086Z,96485.59
2023-01-29T20:38:38.661Z,96490.84
2023-01-29T20:41:16.973Z,96499.03
2023-01-29T20:43:44.887Z,96492.66
2023-01-29T20:46:11.972Z,96490.84
2023-01-29T20:48:38.655Z,96494.63
2023-01-29T20:51:10.847Z,96495.50
2023-01-29T20:53:37.691Z,96500.88
2023-01-29T20:56:05.194Z,96506.63
2023-01-29T20:58:35.722Z,96507.94
2023-01-29T21:01:07.935Z,96507.31
2023-01-29T21:03:34.590Z,96505.94
2023-01-29T21:06:01.097Z,96508.53
2023-01-29T21:08:27.616Z,96506.84
2023-01-29T21:10:54.271Z,96505.78
2023-01-29T21:13:20.759Z,96508.09
2023-01-29T21:15:50.143Z,96508.78
2023-01-29T21:18:16.953Z,96506.53
2023-01-29T21:20:43.440Z,96508.03
2023-01-29T21:23:10.334Z,96496.50
2023-01-29T21:25:36.919Z,96505.88
2023-01-29T21:28:03.460Z,96505.78
2023-01-29T21:30:31.585Z,96497.06
2023-01-29T21:32:58.062Z,96497.41
2023-01-29T21:35:26.775Z,96497.72
2023-01-29T21:37:53.308Z,96509.88
2023-01-29T21:40:20.184Z,96508.66
2023-01-29T21:42:58.024Z,96499.84
2023-01-29T21:45:24.585Z,96506.53
2023-01-29T21:47:56.811Z,96501.34
2023-01-29T21:50:29.691Z,96498.56
2023-01-29T21:52:56.260Z,96502.44
2023-01-29T21:55:22.806Z,96494.19
2023-01-29T21:57:49.403Z,96498.91
2023-01-29T22:00:17.020Z,96498.91
2023-01-29T22:02:43.860Z,96486.69
2023-01-29T22:05:18.689Z,96502.81
2023-01-29T22:07:46.609Z,96482.06
2023-01-29T22:10:13.232Z,96482.81
2023-01-29T22:12:42.268Z,96491.06
2023-01-29T22:15:09.314Z,96484.44
2023-01-29T22:17:36.106Z,96483.81
2023-01-29T22:20:02.612Z,96482.81
2023-01-29T22:22:29.153Z,96486.34
2023-01-29T22:24:55.603Z,96481.66
2023-01-29T22:27:22.068Z,96475.72
2023-01-29T22:29:48.561Z,96473.69
2023-01-29T22:32:15.087Z,96483.06
2023-01-29T22:34:41.565Z,96482.06
2023-01-29T22:37:08.072Z,96476.66
2023-01-29T22:39:34.560Z,96468.16
2023-01-29T22:42:01.060Z,96465.34
2023-01-29T22:44:27.604Z,96461.00
2023-01-29T22:46:54.127Z,96461.19
2023-01-29T22:49:20.615Z,96461.66
2023-01-29T22:51:47.152Z,96447.19
2023-01-29T22:54:13.824Z,96442.91
2023-01-29T22:56:40.335Z,96434.94
2023-01-29T22:59:06.786Z,96433.47
2023-01-29T23:01:33.309Z,96429.09
2023-01-29T23:03:59.827Z,96431.03
2023-01-29T23:06:26.420Z,96425.44
2023-01-29T23:08:53.054Z,96427.97
2023-01-29T23:11:21.080Z,96417.00
2023-01-29T23:13:53.167Z,96410.41
2023-01-29T23:16:22.895Z,96409.59
2023-01-29T23:18:53.321Z,96410.06
2023-01-29T23:21:22.264Z,96409.09
2023-01-29T23:23:49.144Z,96405.38
2023-01-29T23:26:15.652Z,96407.34
2023-01-29T23:28:42.806Z,96400.53
2023-01-29T23:31:09.377Z,96399.81
2023-01-29T23:33:35.868Z,96395.47
2023-01-29T23:36:02.428Z,96394.69
2023-01-29T23:38:28.941Z,96396.34
2023-01-29T23:40:55.462Z,96393.00
2023-01-29T23:43:21.926Z,96385.34
2023-01-29T23:45:48.424Z,96385.56
2023-01-29T23:48:15.281Z,96388.69
2023-01-29T23:50:41.779Z,96384.94
2023-01-29T23:53:08.347Z,96376.97
2023-01-29T23:55:34.947Z,96376.00
2023-01-29T23:58:01.423Z,96378.47
